createdAt,value
2022-09-27T00:04:29.378Z,98199.28
2022-09-27T00:09:31.029Z,98200.81
2022-09-27T00:14:32.405Z,98193.25
2022-09-27T00:19:34.116Z,98195.47
2022-09-27T00:24:35.464Z,98196.69
2022-09-27T00:29:37.638Z,98202.72
2022-09-27T00:34:39.414Z,98195.38
2022-09-27T00:39:40.737Z,98181.59
2022-09-27T00:44:42.011Z,98188.69
2022-09-27T00:49:53.513Z,98190.88
2022-09-27T00:55:04.906Z,98182.25
2022-09-27T01:00:12.114Z,98173.97
2022-09-27T01:05:15.470Z,98179.22
2022-09-27T01:10:18.961Z,98163.22
2022-09-27T01:15:28.991Z,98169.56
2022-09-27T01:21:05.753Z,98165.78
2022-09-27T01:26:16.743Z,98161.78
2022-09-27T01:31:37.133Z,98162.50
2022-09-27T01:37:01.124Z,98167.16
2022-09-27T01:42:37.627Z,98159.28
2022-09-27T01:47:45.610Z,98162.63
2022-09-27T01:53:04.014Z,98162.72
2022-09-27T01:58:14.780Z,98155.03
2022-09-27T02:03:28.387Z,98143.06
2022-09-27T02:08:35.071Z,98149.69
2022-09-27T02:13:53.276Z,98151.19
2022-09-27T02:19:11.188Z,98147.22
2022-09-27T02:24:20.368Z,98151.72
2022-09-27T02:29:34.346Z,98153.69
2022-09-27T02:34:37.948Z,98160.94
2022-09-27T02:39:39.335Z,98159.06
2022-09-27T02:44:41.802Z,98164.50
2022-09-27T02:49:54.962Z,98167.88
2022-09-27T02:55:33.894Z,98167.22
2022-09-27T03:00:55.109Z,98172.25
2022-09-27T03:06:11.505Z,98170.53
2022-09-27T03:11:13.022Z,98175.22
2022-09-27T03:16:15.991Z,98173.53
2022-09-27T03:21:17.267Z,98188.16
2022-09-27T03:26:18.617Z,98189.47
2022-09-27T03:31:20.015Z,98198.94
2022-09-27T03:36:21.370Z,98208.47
2022-09-27T03:41:22.693Z,98207.81
2022-09-27T03:46:24.056Z,98203.31
2022-09-27T03:51:25.341Z,98218.81
2022-09-27T03:56:26.767Z,98219.69
2022-09-27T04:01:28.739Z,98226.72
2022-09-27T04:06:30.811Z,98228.63
2022-09-27T04:11:32.125Z,98240.69
2022-09-27T04:16:33.718Z,98246.13
2022-09-27T04:21:35.260Z,98252.88
2022-09-27T04:26:37.069Z,98245.88
2022-09-27T04:31:38.385Z,98251.25
2022-09-27T04:36:39.770Z,98264.59
2022-09-27T04:41:41.073Z,98269.09
2022-09-27T04:46:42.424Z,98271.09
2022-09-27T04:51:43.751Z,98277.69
2022-09-27T04:56:45.065Z,98287.13
2022-09-27T05:01:46.962Z,98292.81
2022-09-27T05:06:48.285Z,98288.84
2022-09-27T05:11:49.620Z,98292.50
2022-09-27T05:16:50.985Z,98295.88
2022-09-27T05:21:52.442Z,98309.13
2022-09-27T05:26:54.459Z,98319.13
2022-09-27T05:31:55.764Z,98324.44
2022-09-27T05:36:57.116Z,98328.63
2022-09-27T05:41:58.609Z,98318.44
2022-09-27T05:47:04.226Z,98337.56
2022-09-27T05:52:06.142Z,98341.69
2022-09-27T05:57:08.068Z,98350.88
2022-09-27T06:02:12.487Z,98353.41
2022-09-27T06:07:13.890Z,98359.38
2022-09-27T06:12:15.237Z,98361.88
2022-09-27T06:17:16.529Z,98369.75
2022-09-27T06:22:17.880Z,98376.22
2022-09-27T06:27:19.260Z,98377.88
2022-09-27T06:32:20.633Z,98391.56
2022-09-27T06:37:26.885Z,98393.84
2022-09-27T06:42:29.767Z,98408.44
2022-09-27T06:47:35.758Z,98412.13
2022-09-27T06:52:37.075Z,98409.41
2022-09-27T06:57:57.063Z,98415.53
2022-09-27T07:03:02.055Z,98415.00
2022-09-27T07:08:04.693Z,98426.34
2022-09-27T07:13:08.294Z,98441.28
2022-09-27T07:18:09.666Z,98457.97
2022-09-27T07:23:12.105Z,98461.63
2022-09-27T07:28:21.976Z,98468.56
2022-09-27T07:33:23.730Z,98472.41
2022-09-27T07:38:25.392Z,98475.91
2022-09-27T07:43:26.835Z,98481.25
2022-09-27T07:48:28.288Z,98486.41
2022-09-27T07:53:29.723Z,98487.66
2022-09-27T07:58:32.238Z,98507.06
2022-09-27T08:03:34.887Z,98501.66
2022-09-27T08:08:36.940Z,98509.13
2022-09-27T08:13:39.136Z,98510.91
2022-09-27T08:18:40.583Z,98509.13
2022-09-27T08:23:42.705Z,98522.50
2022-09-27T08:28:44.084Z,98526.69
2022-09-27T08:33:51.762Z,98530.03
2022-09-27T08:38:57.578Z,98531.78
2022-09-27T08:44:27.469Z,98541.13
2022-09-27T08:49:53.993Z,98536.09
2022-09-27T08:54:58.113Z,98542.06
2022-09-27T08:59:59.365Z,98551.94
2022-09-27T09:05:07.846Z,98567.03
2022-09-27T09:10:49.398Z,98556.56
2022-09-27T09:16:07.905Z,98551.75
2022-09-27T09:21:22.839Z,98561.78
2022-09-27T09:26:38.636Z,98555.28
2022-09-27T09:32:22.595Z,98556.91
2022-09-27T09:37:35.101Z,98554.88
2022-09-27T09:42:47.561Z,98555.63
2022-09-27T09:48:02.127Z,98548.34
2022-09-27T09:53:26.693Z,98536.69
2022-09-27T09:58:57.354Z,98534.28
2022-09-27T10:03:58.673Z,98530.94
2022-09-27T10:09:00.220Z,98524.84
2022-09-27T10:14:01.651Z,98527.53
2022-09-27T10:19:05.500Z,98515.28
2022-09-27T10:24:18.233Z,98510.25
2022-09-27T10:29:20.222Z,98518.84
2022-09-27T10:34:32.711Z,98513.75
2022-09-27T10:39:35.357Z,98507.66
2022-09-27T10:44:36.742Z,98507.28
2022-09-27T10:49:42.191Z,98500.56
2022-09-27T10:54:54.393Z,98495.59
2022-09-27T11:00:08.327Z,98503.97
2022-09-27T11:05:14.768Z,98514.47
2022-09-27T11:10:37.370Z,98503.94
2022-09-27T11:15:52.748Z,98500.31
2022-09-27T11:21:09.176Z,98494.47
2022-09-27T11:26:35.485Z,98497.75
2022-09-27T11:32:02.791Z,98487.84
2022-09-27T11:37:29.399Z,98490.47
2022-09-27T11:42:36.801Z,98472.25
2022-09-27T11:47:50.571Z,98469.16
2022-09-27T11:53:18.598Z,98468.91
2022-09-27T11:58:37.061Z,98457.56
2022-09-27T12:03:56.391Z,98459.28
2022-09-27T12:09:09.105Z,98458.03
2022-09-27T12:14:25.844Z,98462.84
2022-09-27T12:19:42.677Z,98456.50
2022-09-27T12:24:45.525Z,98453.84
2022-09-27T12:29:48.848Z,98445.66
2022-09-27T12:35:00.078Z,98444.09
2022-09-27T12:40:19.030Z,98426.00
2022-09-27T12:45:36.605Z,98434.81
2022-09-27T12:50:45.183Z,98436.13
2022-09-27T12:56:14.079Z,98428.09
2022-09-27T13:01:34.218Z,98433.88
2022-09-27T13:07:13.031Z,98428.97
2022-09-27T13:12:26.148Z,98424.28
2022-09-27T13:17:43.314Z,98437.38
2022-09-27T13:22:44.977Z,98428.47
2022-09-27T13:27:46.329Z,98430.34
2022-09-27T13:33:09.321Z,98422.66
2022-09-27T13:38:24.215Z,98424.53
2022-09-27T13:43:44.278Z,98439.44
2022-09-27T13:48:59.519Z,98424.31
2022-09-27T13:54:10.377Z,98439.84
2022-09-27T13:59:16.680Z,98440.97
2022-09-27T14:04:24.156Z,98441.38
2022-09-27T14:09:27.760Z,98432.38
2022-09-27T14:14:32.948Z,98430.53
2022-09-27T14:19:40.950Z,98424.50
2022-09-27T14:24:42.182Z,98426.66
2022-09-27T14:29:53.444Z,98422.88
2022-09-27T14:35:27.269Z,98422.22
2022-09-27T14:40:29.215Z,98428.16
2022-09-27T14:45:36.133Z,98427.72
2022-09-27T14:50:37.482Z,98425.28
2022-09-27T14:55:39.587Z,98424.78
2022-09-27T15:00:46.788Z,98445.59
2022-09-27T15:05:48.312Z,98453.91
2022-09-27T15:10:49.739Z,98441.34
2022-09-27T15:15:52.816Z,98451.75
2022-09-27T15:20:54.476Z,98449.53
2022-09-27T15:26:29.792Z,98444.56
2022-09-27T15:31:33.371Z,98454.16
2022-09-27T15:36:55.760Z,98464.81
2022-09-27T15:42:03.859Z,98472.31
2022-09-27T15:47:05.353Z,98476.63
2022-09-27T15:52:07.704Z,98462.69
2022-09-27T15:57:12.270Z,98462.94
2022-09-27T16:02:17.194Z,98465.19
2022-09-27T16:07:18.625Z,98473.56
2022-09-27T16:12:19.941Z,98491.84
2022-09-27T16:17:21.453Z,98499.69
2022-09-27T16:22:24.414Z,98524.34
2022-09-27T16:27:27.384Z,98520.34
2022-09-27T16:32:29.978Z,98515.41
2022-09-27T16:37:31.309Z,98520.41
2022-09-27T16:42:32.633Z,98519.44
2022-09-27T16:47:35.008Z,98518.56
2022-09-27T16:52:36.269Z,98519.38
2022-09-27T16:57:38.140Z,98526.88
2022-09-27T17:02:40.186Z,98524.06
2022-09-27T17:07:42.446Z,98528.09
2022-09-27T17:12:43.760Z,98512.22
2022-09-27T17:17:48.817Z,98530.59
2022-09-27T17:22:50.211Z,98539.06
2022-09-27T17:27:51.530Z,98531.28
2022-09-27T17:32:53.015Z,98534.00
2022-09-27T17:37:54.408Z,98537.56
2022-09-27T17:42:56.311Z,98520.75
2022-09-27T17:48:16.382Z,98527.44
2022-09-27T17:53:17.860Z,98519.19
2022-09-27T17:58:19.525Z,98539.69
2022-09-27T18:03:21.427Z,98551.81
2022-09-27T18:08:22.661Z,98552.31
2022-09-27T18:13:24.070Z,98548.41
2022-09-27T18:18:27.684Z,98550.06
2022-09-27T18:23:30.569Z,98554.06
2022-09-27T18:28:31.844Z,98546.25
2022-09-27T18:33:34.167Z,98553.44
2022-09-27T18:38:35.799Z,98550.25
2022-09-27T18:43:39.046Z,98555.91
2022-09-27T18:48:41.080Z,98546.03
2022-09-27T18:53:43.759Z,98549.38
2022-09-27T18:58:45.388Z,98557.75
2022-09-27T19:03:47.329Z,98562.19
2022-09-27T19:08:55.753Z,98560.91
2022-09-27T19:13:57.924Z,98560.16
2022-09-27T19:18:59.345Z,98563.34
2022-09-27T19:24:01.025Z,98573.53
2022-09-27T19:29:02.423Z,98575.56
2022-09-27T19:34:04.272Z,98568.91
2022-09-27T19:39:05.581Z,98574.88
2022-09-27T19:44:06.857Z,98575.91
2022-09-27T19:49:08.103Z,98567.44
2022-09-27T19:54:10.481Z,98572.94
2022-09-27T19:59:12.043Z,98565.78
2022-09-27T20:04:13.694Z,98555.44
2022-09-27T20:09:15.108Z,98553.28
2022-09-27T20:14:16.380Z,98542.47
2022-09-27T20:19:17.716Z,98560.59
2022-09-27T20:24:20.388Z,98552.81
2022-09-27T20:29:21.668Z,98548.66
2022-09-27T20:34:23.601Z,98540.00
2022-09-27T20:39:25.602Z,98540.81
2022-09-27T20:44:27.040Z,98537.00
2022-09-27T20:49:28.317Z,98530.16
2022-09-27T20:54:29.619Z,98532.81
2022-09-27T20:59:31.016Z,98532.66
2022-09-27T21:04:32.263Z,98519.03
2022-09-27T21:09:35.726Z,98517.50
2022-09-27T21:14:36.973Z,98517.13
2022-09-27T21:19:38.192Z,98513.66
2022-09-27T21:24:39.480Z,98515.47
2022-09-27T21:29:40.833Z,98508.97
2022-09-27T21:34:42.102Z,98513.09
2022-09-27T21:39:43.434Z,98503.72
2022-09-27T21:44:44.932Z,98496.06
2022-09-27T21:49:46.182Z,98486.78
2022-09-27T21:54:47.433Z,98474.53
2022-09-27T21:59:48.792Z,98485.97
2022-09-27T22:04:50.458Z,98481.47
2022-09-27T22:09:51.771Z,98478.97
2022-09-27T22:14:53.058Z,98469.66
2022-09-27T22:19:54.346Z,98461.63
2022-09-27T22:24:55.633Z,98456.75
2022-09-27T22:29:56.924Z,98443.53
2022-09-27T22:34:58.251Z,98434.75
2022-09-27T22:39:59.526Z,98440.06
2022-09-27T22:45:00.790Z,98430.97
2022-09-27T22:50:02.154Z,98424.66
2022-09-27T22:55:03.519Z,98410.56
2022-09-27T23:00:06.345Z,98384.69
2022-09-27T23:05:08.111Z,98387.66
2022-09-27T23:10:09.661Z,98371.72
2022-09-27T23:15:13.840Z,98368.56
2022-09-27T23:20:15.250Z,98355.13
2022-09-27T23:25:16.573Z,98353.13
2022-09-27T23:30:19.659Z,98356.28
2022-09-27T23:35:21.648Z,98345.16
2022-09-27T23:40:24.434Z,98335.53
2022-09-27T23:45:27.599Z,98327.22
2022-09-27T23:50:28.834Z,98308.78
2022-09-27T23:55:30.100Z,98314.59
